createdAt,value
2017-09-19T00:04:09.829Z,4.00
2017-09-19T00:06:37.486Z,4.00
2017-09-19T00:09:05.232Z,3.60
2017-09-19T00:11:33.025Z,4.30
2017-09-19T00:14:01.978Z,4.00
2017-09-19T00:16:30.170Z,4.30
2017-09-19T00:18:58.019Z,4.67
2017-09-19T00:21:25.915Z,5.47
2017-09-19T00:23:53.527Z,4.63
2017-09-19T00:26:21.095Z,4.83
2017-09-19T00:28:49.629Z,4.83
2017-09-19T00:31:18.277Z,5.00
2017-09-19T00:33:46.614Z,4.30
2017-09-19T00:36:15.215Z,4.97
2017-09-19T00:38:43.014Z,4.90
2017-09-19T00:41:10.650Z,4.80
2017-09-19T00:43:38.401Z,4.77
2017-09-19T00:46:06.193Z,5.47
2017-09-19T00:48:34.182Z,4.80
2017-09-19T00:51:01.737Z,5.60
2017-09-19T00:53:32.850Z,5.47
2017-09-19T00:56:00.418Z,4.80
2017-09-19T00:58:28.080Z,5.20
2017-09-19T01:00:55.853Z,5.57
2017-09-19T01:03:23.464Z,5.20
2017-09-19T01:05:51.205Z,4.80
2017-09-19T01:08:18.819Z,5.00
2017-09-19T01:10:47.343Z,4.93
2017-09-19T01:13:15.055Z,4.80
2017-09-19T01:15:42.743Z,5.37
2017-09-19T01:18:10.336Z,4.80
2017-09-19T01:24:09.254Z,5.33
2017-09-19T01:26:37.350Z,5.47
2017-09-19T01:29:04.913Z,3.90
2017-09-19T01:36:39.209Z,4.67
2017-09-19T01:39:06.751Z,5.07
2017-09-19T01:41:34.280Z,5.50
2017-09-19T01:44:01.842Z,4.43
2017-09-19T01:46:29.363Z,4.40
2017-09-19T01:48:56.959Z,4.40
2017-09-19T01:51:24.478Z,4.87
2017-09-19T01:53:52.014Z,5.10
2017-09-19T01:56:19.676Z,5.07
2017-09-19T01:58:47.256Z,4.23
2017-09-19T02:01:14.926Z,4.97
2017-09-19T02:03:42.479Z,5.07
2017-09-19T02:06:10.062Z,4.30
2017-09-19T02:08:37.704Z,4.43
2017-09-19T02:11:05.355Z,4.73
2017-09-19T02:13:32.903Z,4.77
2017-09-19T02:16:03.909Z,4.20
2017-09-19T02:18:31.623Z,4.67
2017-09-19T02:36:39.129Z,3.37
2017-09-19T02:39:06.666Z,4.43
2017-09-19T02:41:34.236Z,3.87
2017-09-19T02:44:01.801Z,4.13
2017-09-19T02:46:29.334Z,3.47
2017-09-19T02:48:57.284Z,4.80
2017-09-19T02:56:33.703Z,4.93
2017-09-19T03:09:17.628Z,4.33
2017-09-19T03:11:45.214Z,4.83
2017-09-19T03:14:12.856Z,4.00
2017-09-19T03:16:40.414Z,4.37
2017-09-19T03:19:07.991Z,4.27
2017-09-19T03:22:16.521Z,4.93
2017-09-19T03:28:14.680Z,4.43
2017-09-19T03:30:42.660Z,4.73
2017-09-19T03:33:11.780Z,4.53
2017-09-19T03:35:39.544Z,4.27
2017-09-19T03:38:07.124Z,5.90
2017-09-19T03:40:34.731Z,4.57
2017-09-19T03:43:02.310Z,3.80
2017-09-19T03:48:09.779Z,3.83
2017-09-19T03:50:38.199Z,3.83
2017-09-19T03:53:05.978Z,3.40
2017-09-19T03:55:33.693Z,4.50
2017-09-19T03:58:01.351Z,4.60
2017-09-19T04:00:29.009Z,5.20
2017-09-19T04:02:57.287Z,4.57
2017-09-19T04:05:30.285Z,4.80
2017-09-19T04:07:58.056Z,4.40
2017-09-19T04:10:25.655Z,4.13
2017-09-19T04:12:53.293Z,4.97
2017-09-19T04:15:22.018Z,4.73
2017-09-19T04:17:49.878Z,4.20
2017-09-19T04:20:17.416Z,4.40
2017-09-19T04:22:45.771Z,5.10
2017-09-19T04:25:13.413Z,4.83
2017-09-19T04:27:40.991Z,4.60
2017-09-19T04:30:08.511Z,6.27
2017-09-19T04:32:36.194Z,5.50
2017-09-19T04:35:04.155Z,14.93
2017-09-19T04:37:31.959Z,8.53
2017-09-19T04:40:10.153Z,12.27
2017-09-19T04:42:38.827Z,16.67
2017-09-19T04:45:06.726Z,13.60
2017-09-19T04:47:34.921Z,9.50
2017-09-19T04:50:02.740Z,9.63
2017-09-19T04:53:06.223Z,12.00
2017-09-19T04:55:33.859Z,6.80
2017-09-19T04:58:01.416Z,6.27
2017-09-19T05:00:29.003Z,8.53
2017-09-19T05:02:56.577Z,6.37
2017-09-19T05:05:24.295Z,5.47
2017-09-19T05:10:27.796Z,8.27
2017-09-19T05:13:09.748Z,7.67
2017-09-19T05:15:38.335Z,5.37
2017-09-19T05:18:12.906Z,5.30
2017-09-19T05:20:40.530Z,6.70
2017-09-19T05:23:08.958Z,6.07
2017-09-19T05:25:55.024Z,5.77
2017-09-19T05:28:36.873Z,6.30
2017-09-19T05:31:04.606Z,6.50
2017-09-19T05:33:32.229Z,5.97
2017-09-19T05:38:36.275Z,6.03
2017-09-19T05:41:06.660Z,6.30
2017-09-19T05:43:34.716Z,6.03
2017-09-19T05:46:18.261Z,6.63
2017-09-19T05:59:35.428Z,7.10
2017-09-19T06:02:05.521Z,17.40
2017-09-19T06:10:39.200Z,6.90
2017-09-19T06:13:07.503Z,10.97
2017-09-19T06:15:35.418Z,6.60
2017-09-19T06:20:35.287Z,6.70
2017-09-19T06:23:03.572Z,7.03
2017-09-19T06:31:55.651Z,7.73
2017-09-19T06:37:15.601Z,7.17
2017-09-19T12:59:14.336Z,6.00
2017-09-19T13:01:44.136Z,4.33
2017-09-19T13:11:12.407Z,4.57
2017-09-19T16:33:27.114Z,3.20
2017-09-19T16:57:07.099Z,4.17
2017-09-19T20:10:05.321Z,3.93
2017-09-19T20:12:32.998Z,4.60
2017-09-19T20:22:40.375Z,4.93
2017-09-19T20:25:23.919Z,4.43
2017-09-19T20:27:51.574Z,5.63
2017-09-19T20:33:50.226Z,4.63
2017-09-19T20:43:59.124Z,5.47
2017-09-19T20:46:26.838Z,5.37
2017-09-19T20:56:33.485Z,4.63
2017-09-19T20:59:01.066Z,4.90
2017-09-19T21:01:34.897Z,4.83
2017-09-19T21:04:06.995Z,5.33
2017-09-19T21:27:05.463Z,4.87
2017-09-19T21:32:04.936Z,4.60
2017-09-19T21:34:32.520Z,4.50
2017-09-19T21:37:00.256Z,4.37
2017-09-19T21:39:27.998Z,4.90
2017-09-19T21:52:15.271Z,4.30
2017-09-19T21:54:42.854Z,4.40
2017-09-19T21:59:43.184Z,3.83
2017-09-19T22:12:53.721Z,3.60
2017-09-19T22:15:22.908Z,4.40
2017-09-19T22:25:34.809Z,4.70
2017-09-19T22:28:02.441Z,4.23
2017-09-19T22:30:30.006Z,4.00
2017-09-19T22:35:29.960Z,4.50
2017-09-19T22:37:57.597Z,4.00
2017-09-19T22:40:25.181Z,4.73
2017-09-19T22:42:52.808Z,3.63
2017-09-19T22:50:25.840Z,3.50
2017-09-19T22:52:53.429Z,3.90
2017-09-19T22:55:21.167Z,4.13
2017-09-19T23:08:05.264Z,4.37
2017-09-19T23:18:13.306Z,3.83
2017-09-19T23:23:19.293Z,4.87
2017-09-19T23:30:52.735Z,3.83
2017-09-19T23:33:20.306Z,4.83
2017-09-19T23:38:20.443Z,4.00
2017-09-19T23:40:48.065Z,3.97
2017-09-19T23:43:16.214Z,4.07
2017-09-19T23:45:46.167Z,3.47
2017-09-19T23:48:14.011Z,3.90
2017-09-19T23:53:16.398Z,3.80
2017-09-19T23:58:25.599Z,4.50
